createdAt,value
2024-01-11T00:04:04.043Z,94522.81
2024-01-11T00:09:06.938Z,94521.78
2024-01-11T00:14:08.799Z,94516.66
2024-01-11T00:19:10.409Z,94523.19
2024-01-11T00:24:13.349Z,94513.03
2024-01-11T00:29:15.115Z,94519.75
2024-01-11T00:34:16.719Z,94518.91
2024-01-11T00:39:19.669Z,94523.94
2024-01-11T00:44:21.249Z,94519.03
2024-01-11T00:49:22.938Z,94517.06
2024-01-11T00:54:25.889Z,94512.66
2024-01-11T00:59:27.491Z,94509.78
2024-01-11T01:04:29.149Z,94522.53
2024-01-11T01:09:32.328Z,94520.44
2024-01-11T01:14:34.092Z,94528.06
2024-01-11T01:19:35.882Z,94535.50
2024-01-11T01:24:38.882Z,94528.41
2024-01-11T01:29:40.568Z,94534.25
2024-01-11T01:34:42.144Z,94540.38
2024-01-11T01:39:45.037Z,94539.09
2024-01-11T01:44:46.666Z,94550.34
2024-01-11T01:49:50.238Z,94549.59
2024-01-11T01:54:53.780Z,94552.88
2024-01-11T01:59:55.567Z,94554.50
2024-01-11T02:04:57.902Z,94554.94
2024-01-11T02:10:00.907Z,94553.50
2024-01-11T02:15:02.627Z,94553.16
2024-01-11T02:20:04.930Z,94563.13
2024-01-11T02:25:08.366Z,94570.56
2024-01-11T02:30:11.115Z,94568.31
2024-01-11T02:35:13.666Z,94564.91
2024-01-11T02:40:16.727Z,94576.47
2024-01-11T02:45:18.260Z,94571.50
2024-01-11T02:50:19.864Z,94561.34
2024-01-11T02:55:22.886Z,94561.78
2024-01-11T03:00:24.418Z,94562.66
2024-01-11T03:05:26.044Z,94555.91
2024-01-11T03:10:28.993Z,94559.25
2024-01-11T03:15:30.492Z,94556.50
2024-01-11T03:20:32.116Z,94554.31
2024-01-11T03:25:34.969Z,94550.53
2024-01-11T03:30:36.684Z,94537.31
2024-01-11T03:35:38.512Z,94536.66
2024-01-11T03:40:41.494Z,94534.03
2024-01-11T03:45:42.979Z,94537.63
2024-01-11T03:50:44.618Z,94535.84
2024-01-11T03:55:47.542Z,94531.75
2024-01-11T04:00:49.165Z,94527.53
2024-01-11T04:05:50.851Z,94530.63
2024-01-11T04:10:53.780Z,94529.00
2024-01-11T04:15:55.376Z,94525.50
2024-01-11T04:20:56.928Z,94525.50
2024-01-11T04:25:59.888Z,94518.59
2024-01-11T04:31:01.508Z,94521.28
2024-01-11T04:36:03.444Z,94523.56
2024-01-11T04:41:09.763Z,94526.75
2024-01-11T04:46:15.389Z,94521.72
2024-01-11T04:51:18.509Z,94538.94
2024-01-11T04:56:21.670Z,94531.13
2024-01-11T05:01:23.289Z,94531.88
2024-01-11T05:06:24.838Z,94533.00
2024-01-11T05:11:27.945Z,94526.97
2024-01-11T05:16:29.873Z,94534.03
2024-01-11T05:21:31.502Z,94532.25
2024-01-11T05:26:34.468Z,94530.19
2024-01-11T05:31:36.183Z,94540.16
2024-01-11T05:36:37.924Z,94546.22
2024-01-11T05:41:44.070Z,94548.69
2024-01-11T05:46:45.645Z,94556.31
2024-01-11T05:51:47.212Z,94552.16
2024-01-11T05:56:50.162Z,94554.09
2024-01-11T06:01:51.800Z,94563.44
2024-01-11T06:06:53.372Z,94570.44
2024-01-11T06:11:56.292Z,94552.63
2024-01-11T06:16:57.978Z,94564.44
2024-01-11T06:21:59.627Z,94564.09
2024-01-11T06:27:02.564Z,94572.88
2024-01-11T06:32:04.890Z,94567.78
2024-01-11T06:37:06.418Z,94572.22
2024-01-11T06:42:09.440Z,94575.47
2024-01-11T06:47:11.188Z,94582.44
2024-01-11T06:52:12.832Z,94587.34
2024-01-11T06:57:15.688Z,94593.50
2024-01-11T07:02:17.318Z,94607.53
2024-01-11T07:07:18.888Z,94605.28
2024-01-11T07:12:21.751Z,94611.22
2024-01-11T07:17:23.371Z,94612.72
2024-01-11T07:22:25.017Z,94601.00
2024-01-11T07:27:27.913Z,94616.25
2024-01-11T07:32:29.754Z,94632.63
2024-01-11T07:37:31.325Z,94627.41
2024-01-11T07:42:34.271Z,94643.28
2024-01-11T07:47:35.915Z,94628.00
2024-01-11T07:52:37.747Z,94637.22
2024-01-11T07:57:41.220Z,94639.44
2024-01-11T08:02:43.098Z,94646.28
2024-01-11T08:07:44.939Z,94652.06
2024-01-11T08:12:47.947Z,94660.47
2024-01-11T08:17:49.696Z,94662.91
2024-01-11T08:22:51.380Z,94675.38
2024-01-11T08:27:54.304Z,94675.22
2024-01-11T08:32:56.053Z,94669.59
2024-01-11T08:37:57.660Z,94684.50
2024-01-11T08:43:00.635Z,94695.75
2024-01-11T08:48:02.382Z,94703.16
2024-01-11T08:53:04.329Z,94710.72
2024-01-11T08:58:07.200Z,94708.53
2024-01-11T09:03:08.884Z,94729.22
2024-01-11T09:08:10.607Z,94731.00
2024-01-11T09:13:14.994Z,94716.97
2024-01-11T09:18:16.930Z,94727.97
2024-01-11T09:23:18.667Z,94721.13
2024-01-11T09:28:21.621Z,94724.16
2024-01-11T09:33:23.315Z,94732.06
2024-01-11T09:38:25.113Z,94713.22
2024-01-11T09:43:28.271Z,94722.56
2024-01-11T09:48:30.962Z,94724.84
2024-01-11T09:53:34.018Z,94728.69
2024-01-11T09:58:37.504Z,94720.91
2024-01-11T10:03:40.480Z,94720.47
2024-01-11T10:08:42.124Z,94703.56
2024-01-11T10:13:45.089Z,94703.88
2024-01-11T10:18:46.877Z,94684.22
2024-01-11T10:23:50.038Z,94669.09
2024-01-11T10:28:53.015Z,94684.94
2024-01-11T10:33:54.662Z,94683.38
2024-01-11T10:38:57.051Z,94680.69
2024-01-11T10:44:01.941Z,94691.31
2024-01-11T10:49:05.782Z,94672.94
2024-01-11T10:54:07.551Z,94668.03
2024-01-11T10:59:11.200Z,94670.78
2024-01-11T11:04:14.460Z,94673.72
2024-01-11T11:09:16.646Z,94673.72
2024-01-11T11:14:20.820Z,94660.03
2024-01-11T11:19:22.783Z,94663.81
2024-01-11T11:24:24.426Z,94653.91
2024-01-11T11:29:27.446Z,94660.03
2024-01-11T11:34:41.906Z,94669.22
2024-01-11T11:39:43.606Z,94660.25
2024-01-11T11:44:51.533Z,94669.13
2024-01-11T11:50:04.857Z,94667.13
2024-01-11T11:55:08.418Z,94657.06
2024-01-11T12:00:13.419Z,94667.50
2024-01-11T12:05:15.640Z,94664.94
2024-01-11T12:10:17.512Z,94664.38
2024-01-11T12:15:20.440Z,94648.03
2024-01-11T12:20:21.995Z,94638.75
2024-01-11T12:25:23.806Z,94631.59
2024-01-11T12:30:27.120Z,94606.47
2024-01-11T12:35:29.261Z,94594.69
2024-01-11T12:40:32.881Z,94615.81
2024-01-11T12:45:36.674Z,94613.06
2024-01-11T12:50:38.399Z,94607.50
2024-01-11T12:55:48.327Z,94590.97
2024-01-11T13:00:57.890Z,94593.50
2024-01-11T13:05:59.512Z,94596.25
2024-01-11T13:11:01.164Z,94604.41
2024-01-11T13:16:04.637Z,94616.28
2024-01-11T13:21:06.650Z,94603.06
2024-01-11T13:26:08.584Z,94601.47
2024-01-11T13:31:11.662Z,94593.91
2024-01-11T13:36:13.358Z,94595.44
2024-01-11T13:41:15.029Z,94598.50
2024-01-11T13:46:18.045Z,94608.28
2024-01-11T13:51:19.758Z,94636.44
2024-01-11T13:56:21.510Z,94634.28
2024-01-11T14:01:24.566Z,94646.19
2024-01-11T14:06:26.227Z,94638.66
2024-01-11T14:11:27.954Z,94633.19
2024-01-11T14:16:30.875Z,94639.56
2024-01-11T14:21:32.406Z,94639.88
2024-01-11T14:26:34.034Z,94640.09
2024-01-11T14:31:37.000Z,94639.38
2024-01-11T14:36:38.772Z,94652.28
2024-01-11T14:41:40.395Z,94638.16
2024-01-11T14:46:43.373Z,94634.63
2024-01-11T14:51:44.973Z,94652.38
2024-01-11T14:56:47.258Z,94665.13
2024-01-11T15:01:50.384Z,94662.88
2024-01-11T15:06:51.944Z,94665.94
2024-01-11T15:11:53.716Z,94667.69
2024-01-11T15:16:56.782Z,94676.22
2024-01-11T15:21:58.372Z,94686.69
2024-01-11T15:26:59.962Z,94683.59
2024-01-11T15:32:02.916Z,94688.19
2024-01-11T15:37:04.906Z,94694.03
2024-01-11T15:42:06.627Z,94702.84
2024-01-11T15:47:09.568Z,94704.03
2024-01-11T15:52:11.142Z,94711.22
2024-01-11T15:57:13.221Z,94701.56
2024-01-11T16:02:16.857Z,94704.47
2024-01-11T16:07:18.500Z,94710.84
2024-01-11T16:12:20.046Z,94721.81
2024-01-11T16:17:22.988Z,94725.63
2024-01-11T16:22:24.686Z,94727.84
2024-01-11T16:27:26.318Z,94737.75
2024-01-11T16:32:29.250Z,94737.97
2024-01-11T16:37:30.834Z,94734.31
2024-01-11T16:42:33.105Z,94722.94
2024-01-11T16:47:36.377Z,94709.00
2024-01-11T16:52:38.258Z,94719.34
2024-01-11T16:57:39.772Z,94715.41
2024-01-11T17:02:42.817Z,94719.69
2024-01-11T17:07:44.499Z,94718.03
2024-01-11T17:12:46.069Z,94716.06
2024-01-11T17:17:49.219Z,94730.38
2024-01-11T17:22:52.332Z,94743.59
2024-01-11T17:27:54.577Z,94761.31
2024-01-11T17:32:57.574Z,94767.94
2024-01-11T17:37:59.226Z,94768.44
2024-01-11T17:43:00.761Z,94768.84
2024-01-11T17:48:04.288Z,94768.94
2024-01-11T17:53:05.923Z,94769.22
2024-01-11T17:58:07.596Z,94770.84
2024-01-11T18:03:10.480Z,94768.97
2024-01-11T18:08:12.088Z,94768.41
2024-01-11T18:13:13.733Z,94767.13
2024-01-11T18:18:16.744Z,94759.44
2024-01-11T18:23:18.470Z,94759.09
2024-01-11T18:28:20.378Z,94767.38
2024-01-11T18:33:24.786Z,94765.25
2024-01-11T18:38:26.478Z,94779.25
2024-01-11T18:43:28.080Z,94779.09
2024-01-11T18:48:31.123Z,94773.88
2024-01-11T18:53:32.793Z,94773.06
2024-01-11T18:58:34.366Z,94775.69
2024-01-11T19:03:37.615Z,94775.84
2024-01-11T19:08:39.228Z,94780.50
2024-01-11T19:13:40.906Z,94782.28
2024-01-11T19:18:44.043Z,94793.81
2024-01-11T19:23:45.811Z,94794.97
2024-01-11T19:28:47.397Z,94796.75
2024-01-11T19:33:50.402Z,94794.16
2024-01-11T19:38:52.148Z,94796.03
2024-01-11T19:43:53.810Z,94792.72
2024-01-11T19:48:56.923Z,94804.63
2024-01-11T19:53:58.621Z,94802.25
2024-01-11T19:59:00.292Z,94802.50
2024-01-11T20:04:03.807Z,94815.53
2024-01-11T20:09:05.415Z,94809.94
2024-01-11T20:14:07.046Z,94805.00
2024-01-11T20:19:10.144Z,94809.69
2024-01-11T20:24:11.872Z,94794.72
2024-01-11T20:29:13.460Z,94790.41
2024-01-11T20:34:16.483Z,94796.19
2024-01-11T20:39:18.254Z,94786.97
2024-01-11T20:44:19.951Z,94790.56
2024-01-11T20:49:22.980Z,94794.19
2024-01-11T20:54:24.611Z,94797.41
2024-01-11T20:59:26.300Z,94798.91
2024-01-11T21:04:29.253Z,94805.44
2024-01-11T21:09:31.231Z,94810.66
2024-01-11T21:14:32.891Z,94814.75
2024-01-11T21:19:35.983Z,94801.50
2024-01-11T21:24:37.660Z,94802.75
2024-01-11T21:29:39.408Z,94805.13
2024-01-11T21:34:42.409Z,94794.00
2024-01-11T21:39:44.054Z,94810.81
2024-01-11T21:44:45.761Z,94809.06
2024-01-11T21:49:49.599Z,94801.88
2024-01-11T21:54:51.263Z,94803.50
2024-01-11T21:59:52.981Z,94797.53
2024-01-11T22:04:55.913Z,94796.59
2024-01-11T22:09:57.492Z,94809.94
2024-01-11T22:14:59.914Z,94810.50
2024-01-11T22:20:03.194Z,94817.13
2024-01-11T22:25:05.619Z,94815.97
2024-01-11T22:30:08.321Z,94808.06
2024-01-11T22:35:11.934Z,94823.91
2024-01-11T22:40:13.687Z,94819.31
2024-01-11T22:45:15.346Z,94822.94
2024-01-11T22:50:18.278Z,94821.03
2024-01-11T22:55:19.902Z,94815.88
2024-01-11T23:00:22.148Z,94812.00
2024-01-11T23:05:25.446Z,94803.88
2024-01-11T23:10:27.053Z,94810.69
2024-01-11T23:15:28.602Z,94811.34
2024-01-11T23:20:32.656Z,94797.44
2024-01-11T23:25:34.332Z,94795.81
2024-01-11T23:30:36.048Z,94794.44
2024-01-11T23:35:39.583Z,94793.38
2024-01-11T23:40:41.278Z,94787.13
2024-01-11T23:45:42.889Z,94785.34
2024-01-11T23:50:45.864Z,94786.66
2024-01-11T23:55:47.821Z,94773.81
